createdAt,value
2022-11-20T00:01:27.969Z,81.53
2022-11-20T00:04:36.188Z,81.75
2022-11-20T00:07:45.752Z,81.29
2022-11-20T00:10:53.971Z,81.92
2022-11-20T00:14:04.064Z,81.48
2022-11-20T00:17:12.273Z,81.72
2022-11-20T00:20:20.535Z,81.27
2022-11-20T00:23:30.479Z,81.35
2022-11-20T00:26:39.146Z,80.95
2022-11-20T00:29:47.640Z,81.27
2022-11-20T00:32:58.752Z,80.82
2022-11-20T00:36:09.972Z,81.76
2022-11-20T00:39:19.892Z,81.62
2022-11-20T00:42:28.417Z,81.12
2022-11-20T00:45:36.688Z,81.47
2022-11-20T00:48:45.455Z,81.63
2022-11-20T00:51:53.710Z,82.28
2022-11-20T00:55:03.449Z,81.24
2022-11-20T00:58:14.419Z,81.43
2022-11-20T01:01:26.171Z,80.20
2022-11-20T01:04:34.645Z,80.86
2022-11-20T01:07:42.895Z,81.04
2022-11-20T01:10:52.727Z,80.95
2022-11-20T01:14:03.138Z,80.63
2022-11-20T01:17:11.342Z,80.53
2022-11-20T01:20:19.622Z,80.82
2022-11-20T01:23:27.879Z,80.19
2022-11-20T01:26:40.577Z,80.28
2022-11-20T01:29:48.849Z,80.72
2022-11-20T01:32:57.964Z,80.66
2022-11-20T01:36:09.179Z,80.50
2022-11-20T01:39:21.590Z,80.61
2022-11-20T01:42:49.472Z,80.91
2022-11-20T01:46:08.464Z,79.95
2022-11-20T01:49:22.567Z,79.90
2022-11-20T01:52:38.428Z,79.96
2022-11-20T01:55:53.667Z,80.16
2022-11-20T01:59:07.198Z,79.75
2022-11-20T02:02:16.360Z,79.64
2022-11-20T02:05:35.169Z,80.14
2022-11-20T02:08:43.454Z,79.53
2022-11-20T02:11:51.969Z,79.97
2022-11-20T02:15:00.911Z,79.48
2022-11-20T02:18:11.303Z,80.06
2022-11-20T02:21:37.230Z,79.14
2022-11-20T02:24:50.564Z,79.49
2022-11-20T02:27:58.898Z,78.99
2022-11-20T02:31:07.296Z,79.11
2022-11-20T02:34:15.504Z,79.64
2022-11-20T02:42:38.441Z,78.34
2022-11-20T02:45:46.658Z,79.08
2022-11-20T02:48:55.034Z,79.52
2022-11-20T02:52:03.647Z,78.69
2022-11-20T02:55:12.205Z,78.85
2022-11-20T02:58:21.846Z,78.55
2022-11-20T03:01:30.157Z,78.51
2022-11-20T03:04:38.456Z,78.90
2022-11-20T03:07:47.063Z,79.54
2022-11-20T03:10:55.453Z,78.68
2022-11-20T03:14:05.947Z,78.10
2022-11-20T03:17:14.313Z,79.02
2022-11-20T03:20:22.903Z,78.95
2022-11-20T03:23:33.110Z,78.42
2022-11-20T03:26:42.217Z,78.95
2022-11-20T03:29:52.013Z,78.72
2022-11-20T03:33:00.757Z,78.99
2022-11-20T03:36:12.818Z,78.31
2022-11-20T03:39:21.527Z,78.68
2022-11-20T03:42:48.367Z,78.67
2022-11-20T03:45:58.629Z,79.90
2022-11-20T03:49:06.928Z,79.36
2022-11-20T03:52:15.171Z,78.95
2022-11-20T03:55:23.415Z,79.07
2022-11-20T03:58:31.816Z,79.31
2022-11-20T04:01:45.421Z,79.06
2022-11-20T04:04:56.624Z,79.87
2022-11-20T04:08:04.909Z,79.07
2022-11-20T04:11:16.995Z,79.04
2022-11-20T04:14:25.535Z,78.86
2022-11-20T04:17:35.274Z,79.08
2022-11-20T04:20:43.437Z,78.20
2022-11-20T04:23:52.483Z,79.02
2022-11-20T04:27:00.726Z,78.56
2022-11-20T04:30:10.452Z,78.37
2022-11-20T04:33:20.548Z,78.69
2022-11-20T04:36:31.092Z,78.35
2022-11-20T04:39:39.613Z,78.81
2022-11-20T04:42:47.913Z,78.74
2022-11-20T04:45:57.151Z,77.45
2022-11-20T04:49:07.226Z,77.69
2022-11-20T04:52:15.961Z,77.62
2022-11-20T04:55:24.178Z,77.93
2022-11-20T04:58:32.935Z,78.76
2022-11-20T05:01:41.368Z,78.53
2022-11-20T05:04:51.388Z,78.65
2022-11-20T05:08:00.001Z,78.89
2022-11-20T05:11:10.585Z,78.40
2022-11-20T05:14:18.819Z,77.83
2022-11-20T05:17:27.099Z,77.43
2022-11-20T05:20:37.206Z,78.53
2022-11-20T05:23:47.056Z,78.66
2022-11-20T05:26:55.279Z,77.92
2022-11-20T05:30:03.967Z,78.50
2022-11-20T05:33:12.230Z,78.49
2022-11-20T05:36:23.028Z,79.92
2022-11-20T05:39:31.439Z,79.07
2022-11-20T05:42:39.831Z,79.12
2022-11-20T05:45:55.442Z,78.89
2022-11-20T05:49:03.778Z,79.65
2022-11-20T05:52:13.785Z,79.66
2022-11-20T05:55:22.180Z,79.49
2022-11-20T05:58:31.307Z,79.09
2022-11-20T06:01:39.621Z,79.99
2022-11-20T06:04:48.060Z,79.14
2022-11-20T06:07:57.940Z,79.08
2022-11-20T06:11:08.086Z,79.44
2022-11-20T06:14:16.426Z,79.52
2022-11-20T06:17:24.750Z,79.84
2022-11-20T06:20:36.641Z,79.28
2022-11-20T06:23:50.261Z,79.56
2022-11-20T06:26:58.656Z,79.31
2022-11-20T06:30:08.602Z,79.43
2022-11-20T06:33:17.065Z,80.40
2022-11-20T06:36:25.965Z,80.60
2022-11-20T06:39:35.551Z,80.95
2022-11-20T06:42:43.867Z,80.21
2022-11-20T06:45:55.206Z,80.59
2022-11-20T06:49:03.669Z,80.31
2022-11-20T06:52:13.265Z,80.64
2022-11-20T06:55:23.660Z,79.33
2022-11-20T06:58:34.662Z,80.13
2022-11-20T07:01:43.141Z,80.02
2022-11-20T07:04:51.325Z,80.00
2022-11-20T07:07:59.628Z,81.56
2022-11-20T07:11:10.290Z,80.47
2022-11-20T07:14:18.721Z,80.06
2022-11-20T07:17:27.015Z,80.61
2022-11-20T07:20:35.251Z,79.32
2022-11-20T07:23:43.512Z,78.89
2022-11-20T07:26:53.301Z,78.62
2022-11-20T07:30:01.657Z,76.29
2022-11-20T07:33:10.100Z,75.77
2022-11-20T07:36:18.286Z,74.20
2022-11-20T07:39:26.475Z,74.34
2022-11-20T07:42:36.283Z,74.46
2022-11-20T07:45:44.526Z,72.73
2022-11-20T07:48:53.108Z,70.97
2022-11-20T07:52:04.715Z,71.23
2022-11-20T07:55:14.484Z,71.87
2022-11-20T07:58:24.331Z,71.48
2022-11-20T08:01:32.562Z,72.03
2022-11-20T08:04:40.928Z,71.43
2022-11-20T08:07:49.378Z,71.52
2022-11-20T08:11:21.169Z,71.79
2022-11-20T08:14:30.098Z,71.42
2022-11-20T08:17:38.327Z,71.90
2022-11-20T08:20:47.745Z,70.74
2022-11-20T08:23:56.056Z,71.12
2022-11-20T08:27:04.460Z,71.54
2022-11-20T08:30:16.514Z,70.35
2022-11-20T08:33:24.728Z,71.08
2022-11-20T08:36:35.904Z,71.32
2022-11-20T08:39:44.143Z,72.13
2022-11-20T08:42:53.074Z,71.12
2022-11-20T08:46:02.811Z,69.95
2022-11-20T08:49:13.939Z,69.52
2022-11-20T08:52:22.162Z,69.54
2022-11-20T08:55:30.415Z,69.26
2022-11-20T08:59:02.066Z,68.65
2022-11-20T09:02:09.715Z,68.99
2022-11-20T09:05:18.088Z,68.69
2022-11-20T09:08:26.303Z,67.62
2022-11-20T09:11:34.777Z,67.22
2022-11-20T09:14:44.492Z,67.20
2022-11-20T09:18:00.747Z,66.77
2022-11-20T09:21:14.748Z,67.09
2022-11-20T09:24:23.092Z,67.04
2022-11-20T09:27:31.373Z,65.42
2022-11-20T09:30:39.655Z,65.37
2022-11-20T09:33:49.450Z,65.45
2022-11-20T09:37:00.325Z,65.33
2022-11-20T09:40:22.870Z,64.98
2022-11-20T09:43:48.926Z,62.49
2022-11-20T09:47:09.420Z,63.61
2022-11-20T09:50:33.692Z,64.56
2022-11-20T09:54:02.525Z,63.64
2022-11-20T09:57:19.241Z,62.38
2022-11-20T10:00:29.436Z,62.14
2022-11-20T10:03:51.121Z,61.00
2022-11-20T10:07:31.382Z,61.07
2022-11-20T10:10:49.477Z,59.56
2022-11-20T10:14:18.391Z,60.17
2022-11-20T10:17:54.845Z,58.17
2022-11-20T10:21:21.073Z,60.38
2022-11-20T10:24:47.160Z,59.27
2022-11-20T10:28:18.522Z,58.37
2022-11-20T10:31:36.845Z,58.68
2022-11-20T10:34:55.043Z,57.79
2022-11-20T10:38:09.922Z,58.77
2022-11-20T10:41:31.892Z,58.11
2022-11-20T10:45:06.856Z,59.39
2022-11-20T10:48:22.591Z,57.42
2022-11-20T10:51:43.808Z,57.46
2022-11-20T10:55:05.832Z,57.31
2022-11-20T10:58:31.248Z,56.74
2022-11-20T11:01:43.939Z,57.24
2022-11-20T11:04:55.892Z,57.01
2022-11-20T11:08:11.040Z,56.15
2022-11-20T11:11:27.605Z,56.22
2022-11-20T11:14:49.271Z,57.13
2022-11-20T11:17:59.016Z,56.87
2022-11-20T11:21:07.782Z,57.39
2022-11-20T11:24:41.785Z,57.27
2022-11-20T11:27:52.657Z,57.64
2022-11-20T11:31:02.597Z,57.56
2022-11-20T11:34:16.445Z,58.38
2022-11-20T11:37:25.000Z,58.65
2022-11-20T11:40:36.549Z,58.69
2022-11-20T11:44:12.099Z,59.05
2022-11-20T11:47:28.061Z,60.05
2022-11-20T11:50:37.160Z,58.99
2022-11-20T11:53:45.924Z,58.11
2022-11-20T11:56:55.767Z,58.13
2022-11-20T12:00:13.148Z,58.18
2022-11-20T12:03:34.322Z,57.78
2022-11-20T12:06:49.351Z,57.41
2022-11-20T12:10:02.913Z,57.43
2022-11-20T12:13:26.145Z,56.88
2022-11-20T12:16:40.075Z,55.84
2022-11-20T12:19:50.140Z,57.11
2022-11-20T12:23:11.779Z,57.84
2022-11-20T12:26:36.101Z,56.50
2022-11-20T12:29:59.815Z,56.52
2022-11-20T12:33:38.051Z,57.17
2022-11-20T12:36:59.995Z,56.98
2022-11-20T12:40:30.845Z,58.02
2022-11-20T12:44:05.215Z,60.43
2022-11-20T12:47:29.436Z,61.54
2022-11-20T12:51:14.683Z,64.32
2022-11-20T12:55:13.314Z,64.09
2022-11-20T12:58:34.874Z,65.62
2022-11-20T13:01:53.363Z,66.92
2022-11-20T13:05:23.050Z,68.97
2022-11-20T13:08:37.038Z,71.02
2022-11-20T13:11:58.256Z,70.58
2022-11-20T13:15:25.707Z,70.36
2022-11-20T13:18:43.429Z,70.91
2022-11-20T13:21:53.012Z,70.69
2022-11-20T13:25:01.312Z,71.30
2022-11-20T13:28:31.587Z,72.04
2022-11-20T13:31:46.077Z,72.23
2022-11-20T13:34:56.343Z,73.37
2022-11-20T13:38:09.868Z,72.75
2022-11-20T13:41:32.187Z,73.38
2022-11-20T13:44:46.597Z,73.87
2022-11-20T13:47:57.514Z,74.35
2022-11-20T13:51:17.444Z,74.15
2022-11-20T13:54:57.901Z,74.46
2022-11-20T13:58:32.959Z,74.54
2022-11-20T14:01:47.888Z,73.43
2022-11-20T14:05:02.103Z,73.06
2022-11-20T14:08:25.359Z,73.41
2022-11-20T14:11:34.452Z,71.34
2022-11-20T14:14:52.221Z,71.29
2022-11-20T14:18:14.822Z,71.25
2022-11-20T14:21:29.238Z,71.86
2022-11-20T14:24:37.697Z,70.66
2022-11-20T14:27:54.053Z,71.42
2022-11-20T14:31:03.946Z,71.01
2022-11-20T14:34:21.369Z,70.34
2022-11-20T14:37:36.306Z,70.01
2022-11-20T14:40:44.742Z,70.42
2022-11-20T14:43:59.495Z,70.19
2022-11-20T14:47:08.124Z,71.02
2022-11-20T14:50:24.031Z,71.20
2022-11-20T14:53:32.437Z,69.21
2022-11-20T14:56:40.828Z,70.42
2022-11-20T14:59:49.453Z,70.67
2022-11-20T15:02:58.524Z,70.51
2022-11-20T15:06:13.166Z,69.14
2022-11-20T15:09:21.755Z,68.42
2022-11-20T15:12:32.057Z,68.28
2022-11-20T15:15:48.772Z,67.30
2022-11-20T15:19:01.274Z,68.24
2022-11-20T15:22:27.374Z,67.50
2022-11-20T15:25:36.446Z,68.01
2022-11-20T15:28:48.461Z,67.67
2022-11-20T15:31:57.562Z,68.79
2022-11-20T15:35:07.106Z,67.97
2022-11-20T15:38:16.787Z,68.33
2022-11-20T15:41:25.182Z,67.81
2022-11-20T15:44:33.605Z,68.71
2022-11-20T15:47:42.314Z,68.81
2022-11-20T15:51:00.401Z,70.58
2022-11-20T15:54:15.363Z,69.91
2022-11-20T15:57:23.825Z,70.38
2022-11-20T16:00:32.305Z,70.09
2022-11-20T16:03:40.782Z,71.30
2022-11-20T16:06:50.453Z,71.30
2022-11-20T16:10:01.862Z,71.15
2022-11-20T16:13:33.809Z,70.85
2022-11-20T16:16:44.120Z,70.46
2022-11-20T16:19:52.673Z,71.31
2022-11-20T16:23:00.980Z,71.68
2022-11-20T16:26:17.037Z,71.13
2022-11-20T16:29:25.585Z,71.58
2022-11-20T16:32:35.213Z,72.83
2022-11-20T16:35:43.830Z,73.05
2022-11-20T16:38:57.451Z,73.92
2022-11-20T16:42:08.478Z,74.99
2022-11-20T16:45:24.746Z,75.68
2022-11-20T16:48:35.433Z,74.51
2022-11-20T16:51:44.307Z,75.33
2022-11-20T16:54:54.459Z,75.60
2022-11-20T16:58:04.485Z,75.38
2022-11-20T17:01:15.290Z,75.82
2022-11-20T17:04:26.078Z,76.25
2022-11-20T17:07:34.879Z,76.61
2022-11-20T17:10:43.623Z,77.27
2022-11-20T17:13:56.220Z,77.89
2022-11-20T17:17:04.648Z,78.18
2022-11-20T17:20:15.318Z,78.41
2022-11-20T17:23:24.240Z,79.34
2022-11-20T17:26:33.379Z,78.90
2022-11-20T17:29:43.132Z,79.57
2022-11-20T17:32:52.876Z,79.58
2022-11-20T17:36:01.551Z,79.30
2022-11-20T17:39:12.169Z,78.93
2022-11-20T17:42:30.044Z,78.76
2022-11-20T17:45:40.565Z,79.48
2022-11-20T17:48:50.907Z,79.81
2022-11-20T17:51:59.145Z,79.65
2022-11-20T17:55:09.002Z,79.36
2022-11-20T17:58:16.360Z,79.67
2022-11-20T18:01:26.099Z,80.25
2022-11-20T18:04:34.394Z,80.06
2022-11-20T18:07:43.130Z,81.46
2022-11-20T18:10:51.563Z,81.09
2022-11-20T18:14:19.500Z,81.92
2022-11-20T18:17:29.270Z,81.84
2022-11-20T18:20:40.029Z,80.33
2022-11-20T18:23:48.763Z,81.51
2022-11-20T18:26:58.697Z,81.43
2022-11-20T18:30:08.867Z,80.86
2022-11-20T18:33:18.840Z,81.22
2022-11-20T18:36:29.945Z,80.82
2022-11-20T18:39:38.354Z,80.80
2022-11-20T18:43:04.191Z,80.15
2022-11-20T18:46:12.640Z,80.74
2022-11-20T18:49:22.779Z,80.18
2022-11-20T18:52:34.594Z,80.02
2022-11-20T18:55:43.103Z,80.42
2022-11-20T18:58:52.271Z,80.54
2022-11-20T19:02:02.935Z,81.36
2022-11-20T19:05:17.032Z,80.80
2022-11-20T19:08:27.367Z,81.35
2022-11-20T19:11:36.458Z,81.88
2022-11-20T19:14:44.978Z,81.48
2022-11-20T19:17:54.878Z,81.74
2022-11-20T19:21:12.068Z,81.07
2022-11-20T19:24:20.373Z,80.66
2022-11-20T19:27:28.638Z,80.69
2022-11-20T19:30:37.356Z,79.92
2022-11-20T19:33:46.783Z,80.13
2022-11-20T19:36:56.575Z,80.95
2022-11-20T19:40:05.505Z,80.60
2022-11-20T19:43:14.856Z,80.45
2022-11-20T19:46:24.471Z,80.37
2022-11-20T19:49:33.911Z,80.93
2022-11-20T19:52:43.938Z,80.43
2022-11-20T19:55:59.724Z,80.28
2022-11-20T19:59:08.414Z,79.95
2022-11-20T20:02:17.283Z,80.16
2022-11-20T20:05:25.835Z,80.11
2022-11-20T20:08:35.928Z,79.77
2022-11-20T20:11:48.080Z,79.50
2022-11-20T20:14:56.819Z,79.64
2022-11-20T20:18:05.245Z,79.98
2022-11-20T20:21:16.805Z,79.70
2022-11-20T20:24:26.561Z,79.72
2022-11-20T20:27:36.729Z,80.04
2022-11-20T20:30:44.959Z,80.33
2022-11-20T20:33:53.319Z,81.23
2022-11-20T20:37:03.010Z,80.78
2022-11-20T20:40:15.447Z,80.14
2022-11-20T20:43:24.145Z,80.25
2022-11-20T20:46:32.790Z,80.71
2022-11-20T20:49:43.181Z,80.19
2022-11-20T20:52:51.376Z,79.02
2022-11-20T20:56:03.288Z,78.65
2022-11-20T20:59:11.556Z,77.98
2022-11-20T21:02:20.445Z,78.01
2022-11-20T21:05:28.872Z,77.92
2022-11-20T21:08:40.712Z,77.76
2022-11-20T21:11:51.177Z,77.51
2022-11-20T21:14:59.799Z,77.25
2022-11-20T21:18:08.627Z,76.93
2022-11-20T21:21:36.021Z,76.67
2022-11-20T21:24:44.815Z,76.64
2022-11-20T21:27:54.656Z,75.55
2022-11-20T21:31:15.259Z,75.69
2022-11-20T21:34:25.213Z,75.48
2022-11-20T21:37:38.334Z,76.05
2022-11-20T21:40:49.015Z,75.71
2022-11-20T21:47:28.490Z,74.21
2022-11-20T21:50:36.994Z,74.44
2022-11-20T21:53:46.974Z,73.97
2022-11-20T21:56:55.303Z,71.95
2022-11-20T22:00:06.778Z,72.06
2022-11-20T22:03:21.199Z,72.36
2022-11-20T22:06:33.516Z,74.24
2022-11-20T22:09:41.772Z,76.09
2022-11-20T22:12:50.024Z,77.40
2022-11-20T22:16:02.943Z,78.47
2022-11-20T22:19:11.270Z,78.54
2022-11-20T22:22:19.442Z,79.83
2022-11-20T22:25:27.623Z,80.35
2022-11-20T22:28:37.342Z,80.34
2022-11-20T22:31:47.763Z,80.67
2022-11-20T22:34:55.984Z,80.47
2022-11-20T22:38:04.501Z,80.14
2022-11-20T22:41:15.229Z,81.06
2022-11-20T22:44:23.852Z,80.84
2022-11-20T22:47:33.698Z,81.02
2022-11-20T22:50:41.941Z,81.42
2022-11-20T22:53:50.558Z,81.26
2022-11-20T22:56:58.761Z,81.45
2022-11-20T23:00:09.484Z,81.72
2022-11-20T23:03:19.310Z,82.05
2022-11-20T23:06:28.663Z,82.60
2022-11-20T23:09:36.876Z,83.13
2022-11-20T23:12:45.043Z,83.47
2022-11-20T23:15:53.375Z,83.48
2022-11-20T23:19:06.202Z,83.64
2022-11-20T23:22:14.799Z,84.88
2022-11-20T23:25:23.343Z,85.12
2022-11-20T23:28:31.923Z,84.47
2022-11-20T23:31:40.624Z,84.21
2022-11-20T23:34:50.583Z,84.64
2022-11-20T23:37:59.313Z,84.94
2022-11-20T23:41:08.418Z,84.90
2022-11-20T23:44:16.903Z,84.73
2022-11-20T23:47:25.665Z,84.89
2022-11-20T23:50:35.515Z,85.21
2022-11-20T23:53:44.145Z,84.57
2022-11-20T23:56:52.335Z,84.99
